createdAt,value
2018-05-26T00:00:22.416Z,3.07
2018-05-26T00:02:50.707Z,3.60
2018-05-26T00:05:18.980Z,4.07
2018-05-26T00:07:47.279Z,3.37
2018-05-26T00:10:15.546Z,2.83
2018-05-26T00:12:43.808Z,3.20
2018-05-26T00:15:12.093Z,3.07
2018-05-26T00:17:40.351Z,3.30
2018-05-26T00:20:08.632Z,3.87
2018-05-26T00:22:36.924Z,3.80
2018-05-26T00:25:06.034Z,4.03
2018-05-26T00:27:34.400Z,3.03
2018-05-26T00:30:02.686Z,3.93
2018-05-26T00:32:30.944Z,3.90
2018-05-26T00:34:59.216Z,3.90
2018-05-26T00:37:27.476Z,3.00
2018-05-26T00:39:55.759Z,2.60
2018-05-26T00:42:24.032Z,3.50
2018-05-26T00:44:53.053Z,3.00
2018-05-26T00:47:21.332Z,3.33
2018-05-26T00:49:49.628Z,3.43
2018-05-26T00:52:17.921Z,3.87
2018-05-26T00:54:46.178Z,3.23
2018-05-26T00:57:14.470Z,3.70
2018-05-26T00:59:42.733Z,3.77
2018-05-26T01:02:11.008Z,4.37
2018-05-26T01:04:40.852Z,7.10
2018-05-26T01:07:09.892Z,3.73
2018-05-26T01:09:38.183Z,3.10
2018-05-26T01:12:06.456Z,3.50
2018-05-26T01:14:34.754Z,3.50
2018-05-26T01:17:03.052Z,3.07
2018-05-26T01:19:31.312Z,3.30
2018-05-26T01:21:59.608Z,4.30
2018-05-26T01:24:28.651Z,3.30
2018-05-26T01:26:56.935Z,3.40
2018-05-26T01:29:25.242Z,3.93
2018-05-26T01:31:54.277Z,2.90
2018-05-26T01:34:22.551Z,5.43
2018-05-26T01:36:50.852Z,3.13
2018-05-26T01:39:19.112Z,3.10
2018-05-26T01:41:47.394Z,3.10
2018-05-26T01:44:15.680Z,3.00
2018-05-26T01:46:43.931Z,3.50
2018-05-26T01:49:12.213Z,2.97
2018-05-26T01:51:40.546Z,3.10
2018-05-26T01:54:08.800Z,3.03
2018-05-26T01:56:37.187Z,3.63
2018-05-26T01:59:05.450Z,3.60
2018-05-26T02:01:33.754Z,3.23
2018-05-26T02:04:02.021Z,3.50
2018-05-26T02:06:30.300Z,3.10
2018-05-26T02:08:58.564Z,3.53
2018-05-26T02:11:26.842Z,3.03
2018-05-26T02:13:55.273Z,4.10
2018-05-26T02:16:23.551Z,3.80
2018-05-26T02:18:51.821Z,3.30
2018-05-26T02:21:20.115Z,3.90
2018-05-26T02:26:23.764Z,2.97
2018-05-26T02:28:52.124Z,3.30
2018-05-26T02:31:20.405Z,3.50
2018-05-26T02:33:48.683Z,3.10
2018-05-26T02:36:16.964Z,6.03
2018-05-26T02:38:45.239Z,3.70
2018-05-26T02:41:13.504Z,3.10
2018-05-26T02:43:41.824Z,3.20
2018-05-26T02:46:10.177Z,3.97
2018-05-26T02:48:38.476Z,3.40
2018-05-26T02:51:06.783Z,3.43
2018-05-26T02:53:35.823Z,3.57
2018-05-26T02:56:04.224Z,2.77
2018-05-26T02:58:32.504Z,3.90
2018-05-26T03:01:01.924Z,3.40
2018-05-26T03:03:30.180Z,3.23
2018-05-26T03:06:04.150Z,3.40
2018-05-26T03:08:38.108Z,3.20
2018-05-26T03:11:13.020Z,3.80
2018-05-26T03:13:47.104Z,3.00
2018-05-26T03:19:16.248Z,3.00
2018-05-26T03:21:44.615Z,3.30
2018-05-26T03:24:12.903Z,3.23
2018-05-26T03:26:41.229Z,3.50
2018-05-26T03:29:09.484Z,3.30
2018-05-26T03:31:38.527Z,3.50
2018-05-26T03:34:06.821Z,4.70
2018-05-26T03:36:35.094Z,3.03
2018-05-26T03:39:03.368Z,3.43
2018-05-26T03:41:31.660Z,3.80
2018-05-26T03:43:59.936Z,4.60
2018-05-26T03:46:28.233Z,3.00
2018-05-26T03:48:57.251Z,2.93
2018-05-26T03:51:25.520Z,4.23
2018-05-26T03:53:54.597Z,3.07
2018-05-26T03:56:34.739Z,4.03
2018-05-26T03:59:15.727Z,3.70
2018-05-26T04:01:44.031Z,3.23
2018-05-26T04:04:12.291Z,3.60
2018-05-26T04:06:40.567Z,2.90
2018-05-26T04:09:09.637Z,3.20
2018-05-26T04:11:37.904Z,3.50
2018-05-26T04:14:06.979Z,3.27
2018-05-26T04:16:35.264Z,3.63
2018-05-26T04:19:03.575Z,3.30
2018-05-26T04:21:32.632Z,2.87
2018-05-26T04:24:00.899Z,3.07
2018-05-26T04:26:29.201Z,2.93
2018-05-26T04:28:58.265Z,3.10
2018-05-26T04:31:26.536Z,2.90
2018-05-26T04:33:54.816Z,3.07
2018-05-26T04:36:23.109Z,3.33
2018-05-26T04:38:51.379Z,3.33
2018-05-26T04:41:19.764Z,3.13
2018-05-26T04:43:48.065Z,3.43
2018-05-26T04:46:17.140Z,3.30
2018-05-26T04:48:45.415Z,3.40
2018-05-26T04:51:13.715Z,3.57
2018-05-26T04:53:41.968Z,3.77
2018-05-26T04:56:10.285Z,3.40
2018-05-26T04:58:38.563Z,3.63
2018-05-26T05:01:07.598Z,3.53
2018-05-26T05:03:35.879Z,3.20
2018-05-26T05:06:04.149Z,3.67
2018-05-26T05:08:32.456Z,3.20
2018-05-26T05:11:00.725Z,3.50
2018-05-26T05:13:29.748Z,3.50
2018-05-26T05:15:58.772Z,3.17
2018-05-26T05:18:27.079Z,3.60
2018-05-26T05:20:56.895Z,3.20
2018-05-26T05:23:25.170Z,3.50
2018-05-26T05:25:53.575Z,3.77
2018-05-26T05:28:21.843Z,3.50
2018-05-26T05:30:50.147Z,3.50
2018-05-26T05:33:18.456Z,3.67
2018-05-26T05:35:46.720Z,3.97
2018-05-26T05:38:15.001Z,4.57
2018-05-26T05:40:43.264Z,4.40
2018-05-26T05:43:11.528Z,4.07
2018-05-26T05:45:39.822Z,3.50
2018-05-26T05:48:08.087Z,3.57
2018-05-26T05:50:36.371Z,4.27
2018-05-26T05:53:04.638Z,4.07
2018-05-26T05:55:32.988Z,3.30
2018-05-26T05:58:01.281Z,3.97
2018-05-26T06:00:30.335Z,3.40
2018-05-26T06:02:59.063Z,4.43
2018-05-26T06:05:28.151Z,3.83
2018-05-26T06:07:57.771Z,4.60
2018-05-26T06:10:26.759Z,4.00
2018-05-26T06:12:55.801Z,3.63
2018-05-26T06:15:24.101Z,3.83
2018-05-26T06:17:52.360Z,4.97
2018-05-26T06:20:20.626Z,4.90
2018-05-26T06:22:48.924Z,3.93
2018-05-26T06:25:17.300Z,4.13
2018-05-26T06:27:45.560Z,3.33
2018-05-26T06:30:13.821Z,6.20
2018-05-26T06:32:42.082Z,4.93
2018-05-26T06:35:10.367Z,5.17
2018-05-26T06:37:38.681Z,4.10
2018-05-26T06:40:06.935Z,5.70
2018-05-26T06:42:35.310Z,4.27
2018-05-26T06:45:03.591Z,5.37
2018-05-26T06:47:31.863Z,3.83
2018-05-26T06:50:00.145Z,4.20
2018-05-26T06:52:28.423Z,4.40
2018-05-26T06:54:57.536Z,3.90
2018-05-26T06:57:25.840Z,4.60
2018-05-26T06:59:54.123Z,4.73
2018-05-26T07:02:22.393Z,4.47
2018-05-26T07:04:50.725Z,4.00
2018-05-26T07:07:18.992Z,4.80
2018-05-26T07:09:48.376Z,4.47
2018-05-26T07:12:16.655Z,4.60
2018-05-26T07:14:44.935Z,4.80
2018-05-26T07:17:13.244Z,4.53
2018-05-26T07:19:41.524Z,4.73
2018-05-26T07:22:09.903Z,4.33
2018-05-26T07:24:38.201Z,4.10
2018-05-26T07:27:06.548Z,3.60
2018-05-26T07:29:34.851Z,4.87
2018-05-26T07:32:03.100Z,5.80
2018-05-26T07:34:31.381Z,4.67
2018-05-26T07:36:59.656Z,4.50
2018-05-26T07:39:27.924Z,5.13
2018-05-26T07:41:56.231Z,5.00
2018-05-26T07:44:24.491Z,5.10
2018-05-26T07:46:54.275Z,4.37
2018-05-26T07:49:22.548Z,4.70
2018-05-26T07:51:50.822Z,4.67
2018-05-26T07:54:19.095Z,4.17
2018-05-26T07:56:47.387Z,3.73
2018-05-26T07:59:15.644Z,4.53
2018-05-26T08:01:43.936Z,5.00
2018-05-26T08:04:12.250Z,5.20
2018-05-26T08:06:40.528Z,4.33
2018-05-26T08:09:09.599Z,4.83
2018-05-26T08:11:37.899Z,4.43
2018-05-26T08:14:06.943Z,5.73
2018-05-26T08:16:35.223Z,5.90
2018-05-26T08:19:03.530Z,3.93
2018-05-26T08:21:31.797Z,5.00
2018-05-26T08:24:00.184Z,5.80
2018-05-26T08:26:28.443Z,5.73
2018-05-26T08:28:56.702Z,5.73
2018-05-26T08:31:24.991Z,5.27
2018-05-26T08:33:53.309Z,6.30
2018-05-26T08:36:21.548Z,7.30
2018-05-26T08:38:49.811Z,5.37
2018-05-26T08:41:18.223Z,6.50
2018-05-26T08:43:46.524Z,5.20
2018-05-26T08:46:15.568Z,5.00
2018-05-26T08:48:43.833Z,5.70
2018-05-26T08:51:12.104Z,5.53
2018-05-26T08:53:40.379Z,6.23
2018-05-26T08:56:08.690Z,5.50
2018-05-26T08:58:36.970Z,6.27
2018-05-26T09:01:05.264Z,5.90
2018-05-26T09:03:33.517Z,6.63
2018-05-26T09:06:01.811Z,6.00
2018-05-26T09:08:30.067Z,5.90
2018-05-26T09:10:58.320Z,6.80
2018-05-26T09:13:26.640Z,5.50
2018-05-26T09:15:54.924Z,6.50
2018-05-26T09:18:23.192Z,5.73
2018-05-26T09:20:51.540Z,6.83
2018-05-26T09:23:19.799Z,6.77
2018-05-26T09:25:48.075Z,6.60
2018-05-26T09:28:16.379Z,6.20
2018-05-26T09:30:44.675Z,6.03
2018-05-26T09:33:12.959Z,5.60
2018-05-26T09:35:41.336Z,6.10
2018-05-26T09:38:09.594Z,6.87
2018-05-26T09:40:39.395Z,7.17
2018-05-26T09:43:07.657Z,6.00
2018-05-26T09:45:35.975Z,5.70
2018-05-26T09:48:05.024Z,6.40
2018-05-26T09:50:33.272Z,6.17
2018-05-26T09:53:02.384Z,5.63
2018-05-26T09:55:31.390Z,6.67
2018-05-26T09:57:59.659Z,5.30
2018-05-26T10:00:27.929Z,5.10
2018-05-26T10:02:56.243Z,6.53
2018-05-26T10:05:24.555Z,6.07
2018-05-26T10:07:52.847Z,5.53
2018-05-26T10:10:21.885Z,6.30
2018-05-26T10:12:50.220Z,6.13
2018-05-26T10:15:18.476Z,5.27
2018-05-26T10:17:47.560Z,5.80
2018-05-26T10:20:15.817Z,6.33
2018-05-26T10:22:44.108Z,5.33
2018-05-26T10:25:12.487Z,5.77
2018-05-26T10:27:40.766Z,5.90
2018-05-26T10:30:09.844Z,5.13
2018-05-26T10:32:38.103Z,5.80
2018-05-26T10:35:06.395Z,5.70
2018-05-26T10:37:34.667Z,4.47
2018-05-26T10:40:02.931Z,5.90
2018-05-26T10:42:31.204Z,4.93
2018-05-26T10:44:59.507Z,5.77
2018-05-26T10:47:27.778Z,5.93
2018-05-26T10:49:56.107Z,5.20
2018-05-26T10:52:25.138Z,5.20
2018-05-26T10:54:53.404Z,5.07
2018-05-26T10:57:21.820Z,5.40
2018-05-26T10:59:50.104Z,5.30
2018-05-26T11:02:19.132Z,4.50
2018-05-26T11:04:47.449Z,4.87
2018-05-26T11:07:15.715Z,4.90
2018-05-26T11:09:43.988Z,4.97
2018-05-26T11:12:12.253Z,5.40
2018-05-26T11:14:40.565Z,4.33
2018-05-26T11:17:08.813Z,4.40
2018-05-26T11:19:37.100Z,5.00
2018-05-26T11:22:05.387Z,5.13
2018-05-26T11:24:33.737Z,4.80
2018-05-26T11:27:01.915Z,5.57
2018-05-26T11:29:30.224Z,5.30
2018-05-26T11:31:58.472Z,5.20
2018-05-26T11:34:26.746Z,4.87
2018-05-26T11:36:55.061Z,4.77
2018-05-26T11:39:23.337Z,4.60
2018-05-26T11:41:51.592Z,5.30
2018-05-26T11:44:19.863Z,4.80
2018-05-26T11:46:48.136Z,4.97
2018-05-26T11:49:16.408Z,4.57
2018-05-26T11:51:44.705Z,4.80
2018-05-26T11:54:12.985Z,3.73
2018-05-26T11:56:41.248Z,5.30
2018-05-26T11:59:09.529Z,4.73
2018-05-26T12:01:37.895Z,5.13
2018-05-26T12:04:06.168Z,4.90
2018-05-26T12:06:34.576Z,4.80
2018-05-26T12:09:02.827Z,3.97
2018-05-26T12:11:31.103Z,5.70
2018-05-26T12:13:59.367Z,4.80
2018-05-26T12:16:27.636Z,4.67
2018-05-26T12:18:55.932Z,4.77
2018-05-26T12:21:24.202Z,4.63
2018-05-26T12:23:52.552Z,4.50
2018-05-26T12:26:20.846Z,5.00
2018-05-26T12:28:49.115Z,5.23
2018-05-26T12:31:17.400Z,5.03
2018-05-26T12:33:45.677Z,6.20
2018-05-26T12:36:13.976Z,5.07
2018-05-26T12:38:42.676Z,5.10
2018-05-26T12:41:10.921Z,4.93
2018-05-26T12:43:39.195Z,4.90
2018-05-26T12:46:07.472Z,5.40
2018-05-26T12:48:35.729Z,5.43
2018-05-26T12:51:04.028Z,5.40
2018-05-26T12:53:32.352Z,4.97
2018-05-26T12:56:02.117Z,4.30
2018-05-26T12:58:30.374Z,4.57
2018-05-26T13:00:58.668Z,4.87
2018-05-26T13:03:26.923Z,4.80
2018-05-26T13:05:55.208Z,5.00
2018-05-26T13:08:23.520Z,4.93
2018-05-26T13:10:51.904Z,5.20
2018-05-26T13:13:20.184Z,5.47
2018-05-26T13:15:48.571Z,4.37
2018-05-26T13:18:16.815Z,5.00
2018-05-26T13:20:45.115Z,5.20
2018-05-26T13:23:14.178Z,5.07
2018-05-26T13:25:42.454Z,5.70
2018-05-26T13:28:10.720Z,5.60
2018-05-26T13:30:38.992Z,5.20
2018-05-26T13:33:07.297Z,5.00
2018-05-26T13:35:35.603Z,4.70
2018-05-26T13:38:04.647Z,5.60
2018-05-26T13:40:32.912Z,5.10
2018-05-26T13:43:01.221Z,5.40
2018-05-26T13:45:29.556Z,4.73
2018-05-26T13:47:57.828Z,5.07
2018-05-26T13:50:26.102Z,4.77
2018-05-26T13:52:54.405Z,5.33
2018-05-26T13:55:23.399Z,5.23
2018-05-26T13:57:51.672Z,5.37
2018-05-26T14:00:19.971Z,5.40
2018-05-26T14:02:48.255Z,4.80
2018-05-26T14:05:16.525Z,5.13
2018-05-26T14:07:44.924Z,5.13
2018-05-26T14:10:13.212Z,4.57
2018-05-26T14:12:42.267Z,4.93
2018-05-26T14:15:10.555Z,4.40
2018-05-26T14:17:38.928Z,4.10
2018-05-26T14:20:07.305Z,4.00
2018-05-26T14:22:35.698Z,4.90
2018-05-26T14:25:04.017Z,5.30
2018-05-26T14:27:32.315Z,4.77
2018-05-26T14:30:00.654Z,4.33
2018-05-26T14:32:29.712Z,5.30
2018-05-26T14:34:58.004Z,4.40
2018-05-26T14:37:26.289Z,4.17
2018-05-26T14:39:54.640Z,4.43
2018-05-26T14:42:22.934Z,4.50
2018-05-26T14:44:53.053Z,4.30
2018-05-26T14:47:21.337Z,5.03
2018-05-26T14:49:50.454Z,5.83
2018-05-26T14:52:18.652Z,4.50
2018-05-26T14:54:46.960Z,4.67
2018-05-26T14:57:15.604Z,4.43
2018-05-26T14:59:43.916Z,4.87
2018-05-26T15:02:12.208Z,4.60
2018-05-26T15:04:40.508Z,4.40
2018-05-26T15:07:09.544Z,4.57
2018-05-26T15:09:37.836Z,4.33
2018-05-26T15:12:06.096Z,4.93
2018-05-26T15:14:34.374Z,4.83
2018-05-26T15:17:03.464Z,4.40
2018-05-26T15:19:31.838Z,4.20
2018-05-26T15:22:00.236Z,3.83
2018-05-26T15:24:28.619Z,4.20
2018-05-26T15:26:56.952Z,5.23
2018-05-26T15:29:26.376Z,4.77
2018-05-26T15:31:54.714Z,4.60
2018-05-26T15:34:24.027Z,4.20
2018-05-26T15:36:53.793Z,4.40
2018-05-26T15:39:22.059Z,4.30
2018-05-26T15:41:50.382Z,4.67
2018-05-26T15:44:19.444Z,4.60
2018-05-26T15:46:48.507Z,4.73
2018-05-26T15:49:16.868Z,4.70
2018-05-26T15:51:45.964Z,4.87
2018-05-26T15:54:15.002Z,5.50
2018-05-26T15:56:43.386Z,5.90
2018-05-26T15:59:11.759Z,5.70
2018-05-26T16:01:40.053Z,5.80
2018-05-26T16:04:08.323Z,5.47
2018-05-26T16:06:38.116Z,5.17
2018-05-26T16:09:06.399Z,6.93
2018-05-26T16:11:34.687Z,6.97
2018-05-26T16:14:02.973Z,5.57
2018-05-26T16:16:32.097Z,6.10
2018-05-26T16:19:00.408Z,6.13
2018-05-26T16:21:29.601Z,5.83
2018-05-26T16:23:57.940Z,5.93
2018-05-26T16:26:27.019Z,6.63
2018-05-26T16:28:55.387Z,6.10
2018-05-26T16:31:24.499Z,6.20
2018-05-26T16:33:52.781Z,5.80
2018-05-26T16:36:21.961Z,5.93
2018-05-26T16:38:50.245Z,5.90
2018-05-26T16:41:18.628Z,5.17
2018-05-26T16:43:47.720Z,6.77
2018-05-26T16:46:16.804Z,6.37
2018-05-26T16:48:45.113Z,6.20
2018-05-26T16:51:13.384Z,7.87
2018-05-26T16:53:42.527Z,8.50
2018-05-26T16:56:10.821Z,7.23
2018-05-26T16:58:39.144Z,6.57
2018-05-26T17:01:07.496Z,6.43
2018-05-26T17:03:35.858Z,8.23
2018-05-26T17:06:05.656Z,6.70
2018-05-26T17:08:33.935Z,6.30
2018-05-26T17:11:02.296Z,6.30
2018-05-26T17:13:30.559Z,6.47
2018-05-26T17:15:58.844Z,6.27
2018-05-26T17:18:27.200Z,6.30
2018-05-26T17:20:56.237Z,5.97
2018-05-26T17:23:24.571Z,7.67
2018-05-26T17:25:52.868Z,5.33
2018-05-26T17:28:21.162Z,6.03
2018-05-26T17:30:49.454Z,6.60
2018-05-26T17:33:17.735Z,6.80
2018-05-26T17:35:46.155Z,7.00
2018-05-26T17:38:15.199Z,7.23
2018-05-26T17:40:43.587Z,6.53
2018-05-26T17:43:13.372Z,6.73
2018-05-26T17:45:41.887Z,5.83
2018-05-26T17:48:11.709Z,7.80
2018-05-26T17:50:40.012Z,7.37
2018-05-26T17:53:08.318Z,8.20
2018-05-26T17:55:36.732Z,7.80
2018-05-26T17:58:05.027Z,6.80
2018-05-26T18:00:33.368Z,7.90
2018-05-26T18:03:02.420Z,6.70
2018-05-26T18:05:30.698Z,5.67
2018-05-26T18:07:58.967Z,5.37
2018-05-26T18:10:27.294Z,4.80
2018-05-26T18:12:55.736Z,4.27
2018-05-26T18:15:24.786Z,5.43
2018-05-26T18:17:53.063Z,5.27
2018-05-26T18:20:24.231Z,4.40
2018-05-26T18:22:52.521Z,4.90
2018-05-26T18:25:21.572Z,4.70
2018-05-26T18:27:49.892Z,4.90
2018-05-26T18:30:18.207Z,4.83
2018-05-26T18:32:46.537Z,5.53
2018-05-26T18:35:14.811Z,5.67
2018-05-26T18:37:43.111Z,4.20
2018-05-26T18:40:11.516Z,4.30
2018-05-26T18:42:39.932Z,4.20
2018-05-26T18:45:08.215Z,5.23
2018-05-26T18:47:36.502Z,5.10
2018-05-26T18:50:04.893Z,4.50
2018-05-26T18:52:33.231Z,5.40
2018-05-26T18:55:01.520Z,5.30
2018-05-26T18:57:29.807Z,5.33
2018-05-26T18:59:58.235Z,4.57
2018-05-26T19:02:26.579Z,4.70
2018-05-26T19:04:54.835Z,4.53
2018-05-26T19:07:23.948Z,4.97
2018-05-26T19:09:53.724Z,3.77
2018-05-26T19:12:21.968Z,3.67
2018-05-26T19:14:50.273Z,4.60
2018-05-26T19:17:18.571Z,4.23
2018-05-26T19:19:46.862Z,4.33
2018-05-26T19:22:15.135Z,4.40
2018-05-26T19:24:43.408Z,4.03
2018-05-26T19:27:13.191Z,4.10
2018-05-26T19:29:41.482Z,4.30
2018-05-26T19:32:09.768Z,3.60
2018-05-26T19:34:38.043Z,4.87
2018-05-26T19:37:06.365Z,4.60
2018-05-26T19:39:34.612Z,4.37
2018-05-26T19:42:02.900Z,4.77
2018-05-26T19:44:31.213Z,4.60
2018-05-26T19:46:59.544Z,4.30
2018-05-26T19:49:27.812Z,3.97
2018-05-26T19:51:56.095Z,4.13
2018-05-26T19:54:24.451Z,3.97
2018-05-26T19:56:52.739Z,4.50
2018-05-26T19:59:21.813Z,4.63
2018-05-26T20:01:50.088Z,4.10
2018-05-26T20:04:18.401Z,4.20
2018-05-26T20:06:47.457Z,4.77
2018-05-26T20:09:15.850Z,4.73
2018-05-26T20:11:44.148Z,3.97
2018-05-26T20:14:12.400Z,3.57
2018-05-26T20:16:40.686Z,5.20
2018-05-26T20:19:08.981Z,4.33
2018-05-26T20:21:37.254Z,4.57
2018-05-26T20:24:05.524Z,4.27
2018-05-26T20:26:33.801Z,4.13
2018-05-26T20:29:02.880Z,3.60
2018-05-26T20:31:31.219Z,3.90
2018-05-26T20:33:59.523Z,3.87
2018-05-26T20:36:27.817Z,4.07
2018-05-26T20:38:56.059Z,4.13
2018-05-26T20:41:24.444Z,4.50
2018-05-26T20:43:52.742Z,4.40
2018-05-26T20:46:21.091Z,4.13
2018-05-26T20:48:49.515Z,4.50
2018-05-26T20:51:18.852Z,3.80
2018-05-26T20:53:47.901Z,4.10
2018-05-26T20:56:17.004Z,4.43
2018-05-26T20:58:45.376Z,4.30
2018-05-26T21:01:13.753Z,5.27
2018-05-26T21:03:42.015Z,4.50
2018-05-26T21:06:10.316Z,3.57
2018-05-26T21:08:38.618Z,4.47
2018-05-26T21:11:07.116Z,3.97
2018-05-26T21:13:36.147Z,3.97
2018-05-26T21:16:06.388Z,4.10
2018-05-26T21:18:34.776Z,4.93
2018-05-26T21:21:03.132Z,4.73
2018-05-26T21:23:31.409Z,4.50
2018-05-26T21:25:59.671Z,4.77
2018-05-26T21:28:27.944Z,5.83
2018-05-26T21:30:56.219Z,4.53
2018-05-26T21:33:24.844Z,4.50
2018-05-26T21:35:53.252Z,4.60
2018-05-26T21:40:56.944Z,4.43
2018-05-26T21:43:25.200Z,4.30
2018-05-26T21:45:53.467Z,4.67
2018-05-26T21:48:21.741Z,4.60
2018-05-26T21:50:50.026Z,4.20
2018-05-26T21:53:18.309Z,4.20
2018-05-26T21:55:46.574Z,4.60
2018-05-26T21:58:14.951Z,3.97
2018-05-26T22:00:43.234Z,3.90
2018-05-26T22:03:11.503Z,3.73
2018-05-26T22:05:39.775Z,4.57
2018-05-26T22:08:08.180Z,5.10
2018-05-26T22:10:36.447Z,4.63
2018-05-26T22:13:04.725Z,3.47
2018-05-26T22:15:33.010Z,5.20
2018-05-26T22:18:01.617Z,4.20
2018-05-26T22:20:29.868Z,5.13
2018-05-26T22:22:59.785Z,5.10
2018-05-26T22:25:28.289Z,4.70
2018-05-26T22:27:57.325Z,4.87
2018-05-26T22:30:25.739Z,5.67
2018-05-26T22:32:54.800Z,4.20
2018-05-26T22:35:23.080Z,4.23
2018-05-26T22:37:51.490Z,3.87
2018-05-26T22:40:19.848Z,4.90
2018-05-26T22:42:48.156Z,4.97
2018-05-26T22:45:17.340Z,4.30
2018-05-26T22:47:45.614Z,4.73
2018-05-26T22:50:15.424Z,4.73
2018-05-26T22:52:43.717Z,4.43
2018-05-26T22:55:12.071Z,4.33
2018-05-26T22:57:40.398Z,5.00
2018-05-26T23:00:08.676Z,4.07
2018-05-26T23:02:37.020Z,4.17
2018-05-26T23:05:06.148Z,4.57
2018-05-26T23:07:34.431Z,4.10
2018-05-26T23:10:02.732Z,4.90
2018-05-26T23:12:31.024Z,4.80
2018-05-26T23:14:59.339Z,5.13
2018-05-26T23:17:27.730Z,4.90
2018-05-26T23:19:56.047Z,5.13
2018-05-26T23:22:24.377Z,4.63
2018-05-26T23:24:52.667Z,4.90
2018-05-26T23:27:20.996Z,4.93
2018-05-26T23:29:49.277Z,5.43
2018-05-26T23:32:17.545Z,4.60
2018-05-26T23:34:45.826Z,5.50
2018-05-26T23:37:14.147Z,4.93
2018-05-26T23:39:43.239Z,5.47
2018-05-26T23:42:12.295Z,4.63
2018-05-26T23:44:40.620Z,4.83
2018-05-26T23:47:08.916Z,5.17
2018-05-26T23:49:37.189Z,6.10
2018-05-26T23:52:05.510Z,5.50
2018-05-26T23:54:35.343Z,5.50
2018-05-26T23:57:03.708Z,5.20
2018-05-26T23:59:32.836Z,5.63
